Time;durP1;ratioP1;P1;durP2;ratioP2;P2;SDS_P1;SDS_P2;PMS_P1;PMS_P2;Temp;Humidity;BMP_temperature;BMP_pressure;BME280_temperature;BME280_humidity;BME280_pressure;Samples;Min_cycle;Max_cycle;Signal;HPM_P1;HPM_P2
2023/05/14 00:00:18;;;;;;;2.67;1.45;;;32.10;67.80;;;;;;4940658;29;20721;-94
2023/05/14 00:02:49;;;;;;;6.20;1.52;;;32.00;67.50;;;;;;4939511;29;20219;-93
2023/05/14 00:05:21;;;;;;;3.15;1.10;;;32.20;69.30;;;;;;4942495;29;20236;-93
2023/05/14 00:07:52;;;;;;;2.55;1.30;;;32.30;67.10;;;;;;4939236;29;20211;-93
2023/05/14 00:10:29;;;;;;;2.50;1.23;;;32.20;67.60;;;;;;4939916;29;20209;-94
2023/05/14 00:13:00;;;;;;;1.73;1.40;;;32.20;67.40;;;;;;4939925;28;20665;-93
2023/05/14 00:15:32;;;;;;;3.45;2.03;;;32.10;67.00;;;;;;4938189;29;20213;-93
2023/05/14 00:18:04;;;;;;;4.68;1.58;;;32.00;68.00;;;;;;4937511;29;20220;-93
2023/05/14 00:20:35;;;;;;;6.40;2.15;;;32.00;69.10;;;;;;4938232;29;20713;-94
2023/05/14 00:23:06;;;;;;;4.68;1.60;;;32.10;69.80;;;;;;4933528;29;20209;-94
2023/05/14 00:25:40;;;;;;;3.28;1.63;;;32.00;68.60;;;;;;4919606;29;20221;-93
2023/05/14 00:28:11;;;;;;;3.38;1.40;;;31.80;68.50;;;;;;4924415;29;20260;-93
2023/05/14 00:30:43;;;;;;;4.90;1.73;;;31.50;68.70;;;;;;4937223;29;20216;-93
2023/05/14 00:33:14;;;;;;;4.78;1.35;;;31.50;70.10;;;;;;4938418;29;20220;-92
2023/05/14 00:35:46;;;;;;;2.65;1.30;;;31.40;68.90;;;;;;4938039;29;20212;-93
2023/05/14 00:38:18;;;;;;;2.03;1.30;;;31.40;68.90;;;;;;4937177;29;20208;-93
2023/05/14 00:40:51;;;;;;;7.60;1.70;;;31.30;68.90;;;;;;4937979;29;20220;-91
2023/05/14 00:43:24;;;;;;;4.32;1.60;;;31.20;69.80;;;;;;4938431;29;20263;-93
2023/05/14 00:45:57;;;;;;;3.65;1.55;;;31.20;70.70;;;;;;4937941;29;20641;-92
2023/05/14 00:48:29;;;;;;;3.72;1.45;;;31.30;73.00;;;;;;4937078;29;20212;-92
2023/05/14 00:51:00;;;;;;;6.07;1.73;;;31.40;71.60;;;;;;4937489;29;20550;-93
2023/05/14 00:53:34;;;;;;;4.22;1.50;;;31.40;70.10;;;;;;4939443;29;20208;-92
2023/05/14 00:56:08;;;;;;;2.65;1.42;;;31.10;70.20;;;;;;4940031;29;20216;-93
2023/05/14 00:58:39;;;;;;;6.28;1.67;;;31.00;71.10;;;;;;4938660;29;20220;-94
2023/05/14 01:01:13;;;;;;;6.30;1.75;;;31.10;70.20;;;;;;4938208;29;20204;-94
2023/05/14 01:03:46;;;;;;;7.18;1.90;;;31.50;70.40;;;;;;4938804;29;20236;-92
2023/05/14 01:06:25;;;;;;;3.40;1.48;;;31.90;68.90;;;;;;4938745;29;20212;-94
2023/05/14 01:09:04;;;;;;;4.40;1.73;;;32.30;69.20;;;;;;4937413;29;20212;-93
2023/05/14 01:11:50;;;;;;;4.32;1.67;;;32.80;69.40;;;;;;4939623;28;20267;-93
2023/05/14 01:14:24;;;;;;;2.75;1.67;;;33.00;68.10;;;;;;4938101;29;20654;-95
2023/05/14 01:17:00;;;;;;;3.15;1.58;;;33.10;66.70;;;;;;4938588;29;20215;-95
2023/05/14 01:19:37;;;;;;;2.75;1.60;;;33.20;67.30;;;;;;4938087;29;20235;-95
2023/05/14 01:22:11;;;;;;;3.17;1.40;;;33.50;67.30;;;;;;4937655;28;20223;-93
2023/05/14 01:24:42;;;;;;;3.67;1.30;;;33.30;65.70;;;;;;4922370;29;20574;-93
2023/05/14 01:27:19;;;;;;;3.38;1.60;;;33.30;65.30;;;;;;4918199;29;20240;-94
2023/05/14 01:29:59;;;;;;;2.80;1.40;;;33.50;64.50;;;;;;4926184;29;20211;-94
2023/05/14 01:32:32;;;;;;;2.88;1.40;;;33.40;64.90;;;;;;4920354;29;20221;-93
2023/05/14 01:35:03;;;;;;;4.72;1.48;;;33.50;65.90;;;;;;4936805;29;20223;-93
2023/05/14 01:37:37;;;;;;;2.90;1.58;;;33.50;66.00;;;;;;4937071;29;20228;-96
2023/05/14 01:40:11;;;;;;;4.05;1.30;;;33.20;66.30;;;;;;4936031;29;20235;-92
2023/05/14 01:42:44;;;;;;;3.28;1.45;;;32.90;65.10;;;;;;4935394;29;20209;-94
2023/05/14 01:45:16;;;;;;;2.13;1.30;;;32.10;66.50;;;;;;4935975;29;20212;-93
2023/05/14 01:47:48;;;;;;;4.35;1.77;;;31.50;66.40;;;;;;4936786;29;20209;-93
2023/05/14 01:50:24;;;;;;;5.85;1.58;;;31.00;66.90;;;;;;4937553;29;20692;-94
2023/05/14 01:52:59;;;;;;;3.55;1.40;;;30.60;68.20;;;;;;4937702;29;20576;-93
2023/05/14 01:55:30;;;;;;;3.22;1.50;;;30.30;68.60;;;;;;4936574;29;20216;-94
2023/05/14 01:58:02;;;;;;;4.00;1.50;;;30.10;69.10;;;;;;4936771;28;20212;-93
2023/05/14 02:00:33;;;;;;;4.38;1.90;;;30.00;70.40;;;;;;4937400;28;20232;-94
2023/05/14 02:03:05;;;;;;;3.20;1.63;;;29.70;69.80;;;;;;4938257;28;20220;-95
2023/05/14 02:05:36;;;;;;;2.80;1.58;;;29.40;70.40;;;;;;4958050;29;20209;-93
2023/05/14 02:08:10;;;;;;;1.75;1.33;;;29.30;71.70;;;;;;4951212;29;20188;-93
2023/05/14 02:10:42;;;;;;;7.30;2.08;;;29.00;73.20;;;;;;4934413;29;20212;-94
2023/05/14 02:13:13;;;;;;;5.18;1.45;;;28.80;73.10;;;;;;4922278;29;20221;-92
2023/05/14 02:15:45;;;;;;;5.13;1.60;;;28.60;73.50;;;;;;4932655;29;20609;-93
2023/05/14 02:18:16;;;;;;;4.15;1.50;;;28.50;74.50;;;;;;4940409;29;20219;-94
2023/05/14 02:20:48;;;;;;;4.28;1.67;;;28.40;74.50;;;;;;4926644;28;20287;-93
2023/05/14 02:23:22;;;;;;;3.47;1.80;;;28.20;74.80;;;;;;4940552;29;20220;-94
2023/05/14 02:26:08;;;;;;;5.38;1.80;;;28.20;75.40;;;;;;4935046;29;20219;-93
2023/05/14 02:28:40;;;;;;;3.77;1.73;;;28.00;76.80;;;;;;4939828;29;20787;-94
2023/05/14 02:31:11;;;;;;;4.35;1.80;;;27.90;77.10;;;;;;4940871;29;20216;-93
2023/05/14 02:33:42;;;;;;;5.57;1.60;;;27.70;78.00;;;;;;4940253;29;20289;-93
2023/05/14 02:36:14;;;;;;;4.47;1.90;;;27.60;78.00;;;;;;4940312;29;20216;-93
2023/05/14 02:38:47;;;;;;;4.33;1.60;;;27.50;77.80;;;;;;4939420;29;20208;-92
2023/05/14 02:41:19;;;;;;;6.70;1.77;;;27.40;78.60;;;;;;4939257;29;20266;-92
2023/05/14 02:43:50;;;;;;;5.87;1.83;;;27.30;79.00;;;;;;4937242;29;20224;-93
2023/05/14 02:46:22;;;;;;;5.73;1.87;;;27.20;80.80;;;;;;4941410;29;20220;-93
2023/05/14 02:48:53;;;;;;;4.30;1.90;;;27.10;79.80;;;;;;4942896;29;20216;-93
2023/05/14 02:51:25;;;;;;;4.75;1.77;;;27.00;81.50;;;;;;4941045;28;20662;-92
2023/05/14 02:53:59;;;;;;;4.60;1.90;;;26.90;81.70;;;;;;4944537;29;20215;-94
2023/05/14 02:56:30;;;;;;;4.80;1.87;;;26.80;82.00;;;;;;4947338;29;20248;-93
2023/05/14 02:59:02;;;;;;;6.03;2.10;;;26.70;82.90;;;;;;4941693;29;20566;-93
2023/05/14 03:01:34;;;;;;;3.47;2.00;;;26.60;83.30;;;;;;4938786;29;20236;-92
2023/05/14 03:04:05;;;;;;;7.47;1.80;;;26.40;82.80;;;;;;4939495;29;20225;-92
2023/05/14 03:06:37;;;;;;;6.77;2.10;;;26.30;85.00;;;;;;4940000;29;20284;-94
2023/05/14 03:09:10;;;;;;;4.80;1.93;;;26.10;87.50;;;;;;4939216;29;20224;-93
2023/05/14 03:11:42;;;;;;;4.63;1.80;;;26.00;86.70;;;;;;4940094;29;20223;-93
2023/05/14 03:14:13;;;;;;;5.40;1.90;;;25.80;88.30;;;;;;4927602;28;20209;-93
2023/05/14 03:16:45;;;;;;;2.47;1.90;;;25.70;87.30;;;;;;4934233;29;20534;-93
2023/05/14 03:19:16;;;;;;;7.80;2.10;;;25.60;88.60;;;;;;4919492;29;20209;-94
2023/05/14 03:21:48;;;;;;;4.87;1.90;;;25.50;90.00;;;;;;4923293;29;20280;-94
2023/05/14 03:24:21;;;;;;;4.57;1.70;;;25.40;90.50;;;;;;4939510;29;20231;-95
2023/05/14 03:26:53;;;;;;;3.60;2.17;;;25.30;90.00;;;;;;4939252;29;20634;-93
2023/05/14 03:29:25;;;;;;;6.87;2.17;;;25.20;90.30;;;;;;4937484;29;20219;-95
2023/05/14 03:31:57;;;;;;;4.03;1.80;;;25.00;91.40;;;;;;4943212;29;20252;-93
2023/05/14 03:34:29;;;;;;;7.13;1.90;;;25.00;90.90;;;;;;4938833;29;20212;-93
2023/05/14 03:37:00;;;;;;;2.00;1.63;;;24.80;91.00;;;;;;4921543;29;20210;-93
2023/05/14 03:39:33;;;;;;;6.10;1.90;;;24.70;91.70;;;;;;4927111;29;20221;-94
2023/05/14 03:42:05;;;;;;;3.67;1.80;;;24.70;91.20;;;;;;4947903;29;20700;-93
2023/05/14 03:44:37;;;;;;;2.87;2.13;;;24.60;92.00;;;;;;4944939;29;20276;-93
2023/05/14 03:47:08;;;;;;;4.57;2.00;;;24.40;92.70;;;;;;4940699;29;20253;-93
2023/05/14 03:49:40;;;;;;;5.67;2.23;;;24.30;93.30;;;;;;4945036;29;20668;-94
2023/05/14 03:52:11;;;;;;;6.17;2.30;;;24.20;94.00;;;;;;4946736;29;20216;-94
2023/05/14 03:54:45;;;;;;;3.83;2.60;;;24.00;94.20;;;;;;4938320;28;20681;-93
2023/05/14 03:59:52;;;;;;;5.97;1.93;;;23.80;95.00;;;;;;5046071;23;20280;-96
2023/05/14 04:02:26;;;;;;;7.33;2.03;;;23.60;95.10;;;;;;4921645;29;20241;-96
2023/05/14 04:07:55;;;;;;;3.00;2.13;;;23.40;96.00;;;;;;4920601;29;20213;-96
2023/05/14 04:10:29;;;;;;;5.40;1.90;;;23.30;96.60;;;;;;5023102;23;20228;-96
2023/05/14 04:13:01;;;;;;;5.10;2.10;;;23.20;97.10;;;;;;4954716;29;20216;-96
2023/05/14 04:15:38;;;;;;;4.63;2.43;;;23.00;97.60;;;;;;4959282;29;20216;-96
2023/05/14 04:18:10;;;;;;;7.43;2.37;;;23.00;98.80;;;;;;4960991;29;20207;-96
2023/05/14 04:24:00;;;;;;;5.77;2.00;;;22.80;98.80;;;;;;4959544;29;20195;-96
2023/05/14 04:26:40;;;;;;;7.70;2.10;;;22.70;99.20;;;;;;4961576;29;20192;-96
2023/05/14 04:29:13;;;;;;;3.20;1.80;;;22.70;99.60;;;;;;5228729;23;20459;-96
2023/05/14 04:31:48;;;;;;;7.40;2.20;;;22.60;99.90;;;;;;4952663;29;20615;-96
2023/05/14 04:34:25;;;;;;;2.80;1.83;;;22.50;99.90;;;;;;4933221;29;20272;-96
2023/05/14 04:36:58;;;;;;;4.30;1.70;;;22.40;99.90;;;;;;4952620;29;20314;-96
2023/05/14 04:39:29;;;;;;;5.37;2.17;;;22.30;99.90;;;;;;4958490;29;20196;-96
2023/05/14 04:42:05;;;;;;;4.87;2.20;;;22.20;99.90;;;;;;4952604;29;20234;-96
2023/05/14 04:44:37;;;;;;;2.47;1.63;;;22.20;99.90;;;;;;4949908;29;20192;-96
2023/05/14 04:56:28;;;;;;;3.60;2.20;;;21.90;99.90;;;;;;4913685;29;20230;-96
2023/05/14 04:59:21;;;;;;;5.87;2.63;;;21.80;99.90;;;;;;4915512;29;20212;-96
2023/05/14 05:01:53;;;;;;;8.63;3.17;;;21.70;99.90;;;;;;4915849;29;20240;-96
2023/05/14 05:04:29;;;;;;;10.27;3.97;;;21.60;99.90;;;;;;4916302;29;20210;-97
2023/05/14 05:23:51;;;;;;;5.87;2.70;;;21.10;99.90;;;;;;4959260;29;20259;-96
2023/05/14 05:26:25;;;;;;;3.87;2.30;;;21.00;99.90;;;;;;4955180;29;20195;-96
2023/05/14 06:01:01;;;;;;;3.83;2.27;;;20.20;99.90;;;;;;4922095;29;20219;-96
2023/05/14 06:03:32;;;;;;;3.00;2.00;;;20.10;99.90;;;;;;4927792;29;20343;-96
2023/05/14 06:06:07;;;;;;;5.33;2.23;;;20.00;99.90;;;;;;4917013;29;20209;-96
2023/05/14 06:14:50;;;;;;;5.13;2.20;;;19.80;99.90;;;;;;4884304;29;20223;-96
2023/05/14 06:17:23;;;;;;;5.73;2.20;;;19.70;99.90;;;;;;4862075;29;20244;-96
2023/05/14 06:19:56;;;;;;;6.80;2.37;;;19.70;99.90;;;;;;4879403;29;20298;-96
2023/05/14 06:22:32;;;;;;;5.63;2.13;;;19.60;99.90;;;;;;4899607;29;20276;-97
2023/05/14 06:25:04;;;;;;;5.10;2.10;;;19.60;99.90;;;;;;4901487;29;20221;-96
2023/05/14 06:27:36;;;;;;;4.20;2.10;;;19.60;99.90;;;;;;4871921;29;20239;-96
2023/05/14 06:30:09;;;;;;;5.10;2.40;;;19.50;99.90;;;;;;4901431;29;20218;-94
2023/05/14 06:32:42;;;;;;;3.73;2.30;;;19.50;99.90;;;;;;4901571;29;20215;-96
2023/05/14 06:37:59;;;;;;;4.37;2.33;;;19.40;99.90;;;;;;4959100;23;20291;-96
2023/05/14 06:40:34;;;;;;;6.60;2.50;;;19.30;99.90;;;;;;4959421;28;20204;-94
2023/05/14 06:43:06;;;;;;;4.77;2.70;;;19.30;99.90;;;;;;4951352;29;20216;-96
2023/05/14 06:45:39;;;;;;;7.03;2.20;;;19.30;99.90;;;;;;4948486;29;20235;-96
2023/05/14 06:48:12;;;;;;;4.17;2.20;;;19.20;99.90;;;;;;4947051;28;20220;-96
2023/05/14 06:50:44;;;;;;;7.33;2.50;;;19.20;99.90;;;;;;4941842;29;20224;-96
2023/05/14 06:53:18;;;;;;;5.37;2.30;;;19.10;99.90;;;;;;4952054;29;20208;-96
2023/05/14 06:55:50;;;;;;;6.50;2.23;;;19.00;99.90;;;;;;4955559;29;20216;-96
2023/05/14 06:58:24;;;;;;;6.60;2.27;;;19.00;99.90;;;;;;4954090;29;20262;-96
2023/05/14 07:00:56;;;;;;;3.87;2.40;;;19.00;99.90;;;;;;4937394;29;20212;-96
2023/05/14 07:03:28;;;;;;;4.27;2.63;;;18.90;99.90;;;;;;4953365;29;20240;-96
2023/05/14 07:06:00;;;;;;;5.67;2.30;;;18.80;99.90;;;;;;4955813;28;20197;-96
2023/05/14 07:08:37;;;;;;;5.13;2.33;;;18.80;99.90;;;;;;4952743;29;20217;-96
2023/05/14 07:11:13;;;;;;;4.20;2.30;;;18.70;99.90;;;;;;4960315;29;20208;-96
2023/05/14 07:13:45;;;;;;;4.30;2.30;;;18.70;99.90;;;;;;4955945;29;20622;-96
2023/05/14 07:16:17;;;;;;;4.37;2.50;;;18.60;99.90;;;;;;4958351;28;20212;-96
2023/05/14 07:18:50;;;;;;;3.87;2.23;;;18.60;99.90;;;;;;4949092;29;20279;-96
2023/05/14 07:21:24;;;;;;;5.80;2.27;;;18.60;99.90;;;;;;4946325;29;20205;-96
2023/05/14 07:23:59;;;;;;;3.73;1.93;;;18.50;99.90;;;;;;4948749;29;20224;-96
2023/05/14 07:26:31;;;;;;;5.63;2.47;;;18.50;99.90;;;;;;4947206;29;20218;-96
2023/05/14 07:29:04;;;;;;;5.20;2.17;;;18.40;99.90;;;;;;4949555;29;20352;-96
2023/05/14 07:31:36;;;;;;;6.40;2.40;;;18.40;99.90;;;;;;4945468;28;20297;-96
2023/05/14 07:34:10;;;;;;;4.20;2.00;;;18.40;99.90;;;;;;4931701;29;20216;-96
2023/05/14 07:36:42;;;;;;;4.27;2.17;;;18.30;99.90;;;;;;4950874;29;20220;-96
2023/05/14 07:39:17;;;;;;;5.70;4.10;;;18.30;99.90;;;;;;4954123;29;20192;-95
2023/05/14 07:41:49;;;;;;;3.70;3.13;;;18.20;99.90;;;;;;4960756;29;20227;-96
2023/05/14 07:44:21;;;;;;;4.33;2.87;;;18.10;99.90;;;;;;4956112;29;20216;-96
2023/05/14 07:46:53;;;;;;;3.57;2.33;;;18.10;99.90;;;;;;4947477;29;20224;-96
2023/05/14 07:49:29;;;;;;;4.80;2.10;;;18.00;99.90;;;;;;4943852;29;20211;-96
2023/05/14 07:52:07;;;;;;;5.20;2.80;;;18.00;99.90;;;;;;4944781;29;20271;-96
2023/05/14 07:54:42;;;;;;;3.10;2.43;;;18.00;99.90;;;;;;4945247;29;20205;-96
2023/05/14 07:57:14;;;;;;;4.40;2.30;;;18.00;99.90;;;;;;4948028;28;20268;-96
2023/05/14 07:59:45;;;;;;;7.77;2.90;;;17.90;99.90;;;;;;4947394;29;20272;-96
2023/05/14 08:02:18;;;;;;;3.50;2.40;;;17.80;99.90;;;;;;4950927;29;20240;-96
2023/05/14 08:04:51;;;;;;;4.83;2.93;;;17.80;99.90;;;;;;4945471;29;20295;-96
2023/05/14 08:07:37;;;;;;;3.27;2.63;;;17.80;99.90;;;;;;4947135;29;20255;-96
2023/05/14 08:10:13;;;;;;;5.30;2.80;;;17.70;99.90;;;;;;4953687;28;20208;-96
2023/05/14 08:12:45;;;;;;;4.20;2.80;;;17.70;99.90;;;;;;4935236;29;20201;-96
2023/05/14 08:15:29;;;;;;;4.40;2.73;;;17.60;99.90;;;;;;4932743;29;20213;-96
2023/05/14 08:18:15;;;;;;;4.97;2.70;;;17.60;99.90;;;;;;4928595;29;20234;-96
2023/05/14 08:20:50;;;;;;;5.33;2.77;;;17.50;99.90;;;;;;4944387;29;20219;-96
2023/05/14 08:23:21;;;;;;;5.03;2.50;;;17.50;99.90;;;;;;4945387;29;20318;-96
2023/05/14 08:25:58;;;;;;;4.57;2.50;;;17.40;99.90;;;;;;4945620;29;20689;-96
2023/05/14 08:28:31;;;;;;;3.80;2.50;;;17.30;99.90;;;;;;4952721;28;20208;-96
2023/05/14 08:31:02;;;;;;;3.67;2.73;;;17.30;99.90;;;;;;4952036;29;20216;-96
2023/05/14 08:33:35;;;;;;;6.60;2.60;;;17.30;99.90;;;;;;4951847;28;20208;-96
2023/05/14 08:36:13;;;;;;;4.60;2.93;;;17.30;99.90;;;;;;4949837;28;20223;-96
2023/05/14 08:38:49;;;;;;;5.03;2.30;;;17.20;99.90;;;;;;4938604;29;20260;-96
2023/05/14 08:41:24;;;;;;;6.07;2.90;;;17.20;99.90;;;;;;4954037;29;20236;-94
2023/05/14 08:44:06;;;;;;;2.47;2.27;;;17.10;99.90;;;;;;4948667;29;20239;-96
2023/05/14 08:46:40;;;;;;;3.93;2.30;;;17.10;99.90;;;;;;4937305;28;20220;-96
2023/05/14 08:49:22;;;;;;;4.30;2.70;;;17.10;99.90;;;;;;4606939;28;10000503;-96
2023/05/14 08:51:54;;;;;;;4.40;2.43;;;17.10;99.90;;;;;;4960011;29;20256;-95
2023/05/14 08:54:27;;;;;;;3.17;2.50;;;17.00;99.90;;;;;;4960048;29;20201;-96
2023/05/14 08:57:01;;;;;;;2.23;2.00;;;17.00;99.90;;;;;;4955426;28;20216;-96
2023/05/14 08:59:46;;;;;;;2.93;2.17;;;17.00;99.90;;;;;;4929802;29;20212;-96
2023/05/14 09:02:19;;;;;;;4.33;2.30;;;17.00;99.90;;;;;;4934558;29;20200;-96
2023/05/14 09:04:55;;;;;;;4.50;2.53;;;16.90;99.90;;;;;;4946453;28;20200;-96
2023/05/14 09:07:27;;;;;;;4.50;2.23;;;16.90;99.90;;;;;;4953024;29;20200;-96
2023/05/14 09:09:59;;;;;;;6.37;2.50;;;16.90;99.90;;;;;;4946429;29;20225;-96
2023/05/14 09:13:00;;;;;;;4.57;2.40;;;16.80;99.90;;;;;;4946060;29;20216;-96
2023/05/14 09:15:34;;;;;;;4.73;2.60;;;16.70;99.90;;;;;;4947999;29;20212;-96
2023/05/14 09:18:11;;;;;;;2.87;2.10;;;16.70;99.90;;;;;;4942881;29;20218;-96
2023/05/14 09:20:43;;;;;;;3.23;2.10;;;16.80;99.90;;;;;;4946513;29;20235;-96
2023/05/14 09:23:54;;;;;;;5.30;2.80;;;16.70;99.90;;;;;;4949198;29;20259;-96
2023/05/14 09:26:31;;;;;;;3.67;2.50;;;16.70;99.90;;;;;;4955499;29;20205;-96
2023/05/14 09:29:45;;;;;;;3.10;2.10;;;16.60;99.90;;;;;;4951311;29;20315;-96
2023/05/14 09:32:27;;;;;;;4.03;2.13;;;16.60;99.90;;;;;;4946403;29;20216;-96
2023/05/14 09:34:59;;;;;;;5.77;2.77;;;16.50;99.90;;;;;;4943612;29;20218;-96
2023/05/14 09:37:34;;;;;;;4.03;2.43;;;16.50;99.90;;;;;;4947528;28;20235;-96
2023/05/14 09:40:12;;;;;;;4.67;2.40;;;16.40;99.90;;;;;;4949959;29;20216;-96
2023/05/14 09:42:47;;;;;;;4.17;2.40;;;16.30;99.90;;;;;;4946856;29;20236;-96
2023/05/14 09:45:19;;;;;;;3.27;2.20;;;16.30;99.90;;;;;;4953617;29;20219;-96
2023/05/14 09:47:55;;;;;;;3.13;2.10;;;16.20;99.90;;;;;;4948069;28;20212;-96
2023/05/14 09:50:30;;;;;;;4.90;2.50;;;16.20;99.90;;;;;;4944768;29;20211;-96
2023/05/14 09:53:03;;;;;;;3.10;2.30;;;16.20;99.90;;;;;;4951987;29;20219;-96
2023/05/14 09:55:36;;;;;;;5.43;2.63;;;16.20;99.90;;;;;;4950543;29;20215;-96
2023/05/14 09:58:25;;;;;;;6.53;2.30;;;16.00;99.90;;;;;;4948344;29;20240;-96
2023/05/14 10:03:51;;;;;;;4.67;2.60;;;16.00;99.90;;;;;;4938572;29;20239;-96
2023/05/14 10:06:27;;;;;;;5.50;2.50;;;16.00;99.90;;;;;;4939982;29;20204;-96
2023/05/14 10:09:15;;;;;;;3.20;2.50;;;15.90;99.90;;;;;;4938937;29;20224;-96
2023/05/14 10:11:51;;;;;;;8.03;2.50;;;15.80;99.90;;;;;;4940363;29;20229;-96
2023/05/14 10:14:28;;;;;;;4.80;2.60;;;15.80;99.90;;;;;;4940319;29;20193;-96
2023/05/14 10:20:07;;;;;;;3.40;2.43;;;15.70;99.90;;;;;;4938012;29;20188;-96
2023/05/14 10:22:40;;;;;;;3.10;2.83;;;15.70;99.90;;;;;;4931547;29;20211;-96
2023/05/14 10:25:13;;;;;;;6.50;2.33;;;15.70;99.90;;;;;;4952728;29;20598;-96
2023/05/14 10:27:45;;;;;;;4.27;2.67;;;15.70;99.90;;;;;;4942209;28;20208;-96
2023/05/14 10:30:17;;;;;;;4.83;2.73;;;15.70;99.90;;;;;;4958569;29;20211;-96
2023/05/14 10:36:07;;;;;;;4.27;3.00;;;15.70;99.90;;;;;;4958730;29;20243;-96
2023/05/14 10:38:39;;;;;;;4.03;2.70;;;15.60;99.90;;;;;;4958563;29;20196;-96
2023/05/14 10:41:14;;;;;;;5.33;2.50;;;15.70;99.90;;;;;;4958955;28;20239;-96
2023/05/14 10:46:23;;;;;;;4.13;2.50;;;15.60;99.90;;;;;;4960324;23;20343;-96
2023/05/14 10:51:33;;;;;;;4.70;2.90;;;15.60;99.90;;;;;;5392388;23;20243;-96
2023/05/14 10:54:10;;;;;;;3.80;2.50;;;15.60;99.90;;;;;;4962428;29;20236;-96
2023/05/14 10:56:47;;;;;;;3.10;2.80;;;15.50;99.90;;;;;;4961616;28;20200;-96
2023/05/14 10:59:20;;;;;;;3.87;2.93;;;15.50;99.90;;;;;;4957816;29;20204;-96
2023/05/14 11:01:52;;;;;;;4.10;2.80;;;15.50;99.90;;;;;;4962014;29;20196;-96
2023/05/14 11:04:26;;;;;;;3.87;2.70;;;15.40;99.90;;;;;;4946063;29;20292;-96
2023/05/14 11:10:01;;;;;;;3.70;2.83;;;15.30;99.90;;;;;;4918772;29;20433;-96
2023/05/14 11:12:40;;;;;;;3.47;2.87;;;15.30;99.90;;;;;;4922870;29;20201;-95
2023/05/14 11:15:17;;;;;;;5.83;2.83;;;15.20;99.90;;;;;;4924146;29;20209;-96
2023/05/14 11:17:51;;;;;;;4.93;2.83;;;15.20;99.90;;;;;;4922723;29;20229;-96
2023/05/14 11:20:23;;;;;;;4.07;2.70;;;15.20;99.90;;;;;;4919481;29;20220;-96
2023/05/14 11:22:55;;;;;;;4.57;2.60;;;15.20;99.90;;;;;;4920379;29;20210;-96
2023/05/14 11:31:53;;;;;;;8.53;2.80;;;15.10;99.90;;;;;;4918689;29;20213;-96
2023/05/14 11:34:26;;;;;;;3.47;2.37;;;15.00;99.90;;;;;;5520609;23;20307;-96
2023/05/14 11:36:59;;;;;;;4.00;2.40;;;15.00;99.90;;;;;;4958111;29;20224;-96
2023/05/14 11:39:32;;;;;;;5.67;2.77;;;15.00;99.90;;;;;;4960603;29;20240;-96
2023/05/14 11:42:05;;;;;;;5.33;2.77;;;14.90;99.90;;;;;;4957589;29;20189;-96
2023/05/14 11:44:38;;;;;;;7.67;2.30;;;15.00;99.90;;;;;;4961097;29;20256;-96
2023/05/14 11:58:59;;;;;;;5.03;2.70;;;14.50;99.90;;;;;;4940921;29;20260;-96
2023/05/14 12:01:38;;;;;;;4.93;2.60;;;14.50;99.90;;;;;;4937159;29;20212;-96
2023/05/14 12:04:13;;;;;;;3.30;2.70;;;14.50;99.90;;;;;;4933364;29;20268;-96
2023/05/14 12:06:46;;;;;;;4.23;2.67;;;14.40;99.90;;;;;;4937328;29;20264;-96
2023/05/14 12:09:19;;;;;;;6.00;2.90;;;14.40;99.90;;;;;;4933563;29;20632;-96
2023/05/14 12:11:52;;;;;;;4.40;2.90;;;14.40;99.90;;;;;;4936884;29;20217;-96
2023/05/14 12:14:42;;;;;;;3.93;2.83;;;14.40;99.90;;;;;;4939934;29;20201;-96
2023/05/14 12:17:16;;;;;;;5.30;2.67;;;14.30;99.90;;;;;;4942066;29;20199;-96
2023/05/14 12:25:20;;;;;;;3.90;2.83;;;14.20;99.90;;;;;;5041939;23;20228;-96
2023/05/14 12:30:40;;;;;;;3.77;3.00;;;14.10;99.90;;;;;;5221629;23;20235;-94
2023/05/14 12:36:00;;;;;;;5.83;3.30;;;14.20;99.90;;;;;;4960997;29;20193;-96
2023/05/14 12:38:51;;;;;;;4.27;2.90;;;14.20;99.90;;;;;;4956617;29;20208;-96
2023/05/14 12:41:25;;;;;;;7.23;3.70;;;14.10;99.90;;;;;;4956083;29;20215;-96
2023/05/14 12:43:57;;;;;;;4.53;3.20;;;14.20;99.90;;;;;;4954218;29;20212;-96
2023/05/14 12:46:29;;;;;;;5.87;3.07;;;14.20;99.90;;;;;;4952550;28;20211;-96
2023/05/14 12:56:27;;;;;;;4.47;3.00;;;14.10;99.90;;;;;;4936607;29;20216;-96
2023/05/14 12:59:00;;;;;;;4.73;3.17;;;14.10;99.90;;;;;;4938131;29;20274;-96
2023/05/14 13:01:32;;;;;;;5.40;3.37;;;14.10;99.90;;;;;;4931329;29;20217;-96
2023/05/14 13:04:05;;;;;;;4.33;3.23;;;14.10;99.90;;;;;;4935493;29;20271;-96
2023/05/14 13:06:39;;;;;;;4.37;2.83;;;14.00;99.90;;;;;;4921420;29;20208;-96
2023/05/14 13:13:05;;;;;;;5.70;3.57;;;14.00;99.90;;;;;;4915486;29;20205;-96
2023/05/14 13:18:46;;;;;;;5.77;3.20;;;14.00;99.90;;;;;;4939980;29;20203;-96
2023/05/14 13:21:18;;;;;;;4.10;2.87;;;14.00;99.90;;;;;;4940155;29;20260;-96
2023/05/14 13:23:50;;;;;;;5.83;3.17;;;14.10;99.90;;;;;;4955246;29;20220;-96
2023/05/14 13:26:25;;;;;;;4.27;3.10;;;14.10;99.90;;;;;;4959935;29;20256;-96
2023/05/14 13:29:30;;;;;;;3.87;2.97;;;14.10;99.90;;;;;;4939436;29;20216;-96
2023/05/14 13:32:02;;;;;;;6.57;3.27;;;14.10;99.90;;;;;;4938023;29;20217;-96
2023/05/14 13:34:35;;;;;;;6.43;2.90;;;14.10;99.90;;;;;;4938245;29;20209;-96
2023/05/14 13:37:07;;;;;;;6.60;3.30;;;14.10;99.90;;;;;;4950311;29;20230;-96
2023/05/14 13:39:39;;;;;;;3.73;3.33;;;14.20;99.90;;;;;;4959840;29;20189;-96
2023/05/14 13:42:11;;;;;;;6.67;3.23;;;14.20;99.90;;;;;;4956690;28;20216;-96
2023/05/14 13:50:04;;;;;;;5.07;3.10;;;14.40;99.90;;;;;;4917238;29;20340;-96
2023/05/14 13:59:10;;;;;;;4.03;3.10;;;14.60;99.90;;;;;;4920045;29;20196;-96
2023/05/14 14:02:44;;;;;;;5.80;3.37;;;14.70;99.90;;;;;;4920062;29;20210;-96
2023/05/14 14:05:20;;;;;;;3.87;3.03;;;14.70;99.90;;;;;;4900049;29;20273;-96
2023/05/14 14:11:12;;;;;;;4.03;2.60;;;14.90;99.90;;;;;;4912974;29;20617;-96
2023/05/14 14:13:44;;;;;;;4.47;3.27;;;15.10;99.90;;;;;;4914589;29;20215;-96
2023/05/14 14:16:16;;;;;;;2.87;2.57;;;15.20;99.90;;;;;;4918101;29;20210;-96
2023/05/14 14:18:52;;;;;;;6.03;3.43;;;15.30;99.90;;;;;;4917237;29;20228;-94
2023/05/14 14:21:27;;;;;;;5.87;3.73;;;15.40;99.90;;;;;;4918356;29;20573;-96
2023/05/14 14:24:02;;;;;;;5.60;3.53;;;15.50;99.90;;;;;;4902731;29;20210;-96
2023/05/14 14:26:37;;;;;;;4.97;3.00;;;15.60;99.90;;;;;;4902731;29;20224;-96
2023/05/14 14:32:28;;;;;;;4.57;3.10;;;15.70;99.90;;;;;;4918183;29;20240;-96
2023/05/14 14:35:09;;;;;;;4.27;3.10;;;15.90;99.90;;;;;;4912926;29;20344;-96
2023/05/14 14:37:47;;;;;;;5.10;3.10;;;15.90;99.90;;;;;;4909028;29;20205;-96
2023/05/14 14:40:19;;;;;;;3.50;3.20;;;16.10;99.90;;;;;;4907384;29;20209;-96
2023/05/14 14:42:52;;;;;;;5.30;3.50;;;16.20;99.90;;;;;;4918760;29;20238;-96
2023/05/14 14:45:24;;;;;;;3.63;3.33;;;16.30;99.90;;;;;;4910226;29;20237;-96
2023/05/14 14:48:30;;;;;;;9.27;3.17;;;16.60;99.90;;;;;;4914782;29;20714;-96
2023/05/14 14:51:03;;;;;;;6.87;3.03;;;17.20;99.90;;;;;;4921772;29;20237;-96
2023/05/14 14:53:39;;;;;;;5.83;2.83;;;17.90;99.90;;;;;;4921050;29;20207;-96
2023/05/14 14:56:11;;;;;;;4.50;3.03;;;18.30;99.90;;;;;;4948142;23;20239;-96
2023/05/14 14:58:44;;;;;;;4.63;2.90;;;18.80;99.90;;;;;;4951826;29;20235;-96
2023/05/14 15:05:00;;;;;;;4.87;2.93;;;19.40;99.90;;;;;;4951725;28;20240;-96
2023/05/14 15:07:33;;;;;;;6.30;2.83;;;20.00;99.90;;;;;;4952520;29;20223;-96
2023/05/14 15:10:10;;;;;;;3.60;2.57;;;20.40;99.90;;;;;;4949793;29;20585;-96
2023/05/14 15:12:44;;;;;;;5.00;2.53;;;20.70;99.90;;;;;;4937403;29;20257;-96
2023/05/14 15:15:18;;;;;;;3.90;2.57;;;20.80;99.90;;;;;;4941889;29;20212;-96
2023/05/14 15:23:51;;;;;;;4.53;2.60;;;20.00;99.90;;;;;;4951520;29;20267;-96
2023/05/14 15:26:25;;;;;;;5.37;2.80;;;20.00;99.90;;;;;;4950379;29;20324;-96
2023/05/14 15:29:00;;;;;;;3.87;2.97;;;19.90;99.90;;;;;;4956208;29;20220;-96
2023/05/14 15:34:01;;;;;;;4.57;3.30;;;20.20;99.90;;;;;;4961108;29;20224;-96
2023/05/14 15:36:33;;;;;;;3.63;2.80;;;20.30;99.90;;;;;;4960417;29;20205;-96
2023/05/14 15:39:09;;;;;;;5.37;2.80;;;20.30;99.90;;;;;;4954956;29;20203;-96
2023/05/14 15:41:43;;;;;;;3.43;2.80;;;20.30;99.90;;;;;;4960386;29;20188;-96
2023/05/14 15:44:18;;;;;;;5.10;3.10;;;20.30;99.90;;;;;;4961431;29;20220;-96
2023/05/14 15:46:50;;;;;;;5.87;2.83;;;20.40;99.90;;;;;;4961325;29;20242;-96
2023/05/14 15:49:23;;;;;;;10.07;3.10;;;20.40;99.90;;;;;;4954792;29;20234;-96
2023/05/14 15:51:55;;;;;;;3.50;2.73;;;20.40;99.90;;;;;;4938126;29;20208;-96
2023/05/14 15:54:29;;;;;;;3.23;2.93;;;20.40;99.90;;;;;;4941529;29;20213;-94
2023/05/14 16:05:07;;;;;;;5.40;2.93;;;20.60;99.90;;;;;;4912962;29;20499;-96
2023/05/14 16:07:49;;;;;;;4.90;2.60;;;20.60;99.90;;;;;;4906270;29;20217;-95
2023/05/14 16:10:22;;;;;;;7.43;3.13;;;20.70;99.90;;;;;;4900365;29;20218;-96
2023/05/14 16:12:54;;;;;;;3.87;2.60;;;20.80;99.90;;;;;;4882895;29;20616;-95
2023/05/14 16:15:25;;;;;;;4.10;2.43;;;20.90;99.90;;;;;;4890079;29;20214;-93
2023/05/14 16:17:57;;;;;;;5.23;2.40;;;20.90;99.90;;;;;;4897549;29;20224;-90